Decoded Metar for KD57 ( in ) (IATA:) | Meteo·Mobile Aviation Weather
aviador You're here:

KD57 Decoded Metar

in
Report Time2019-06-18 14:15:00
UTC Time2019-06-18 14:39:26
Flight Rules vfr VFR
Wind100° at 06 kt
Visibility9999 m
Phenomena:N/A
Clouds:N/A
Expected CloudBase > 2,000 ft AGL from Temp-Dew spread
CeilingNone
Temp15°C
Dew Point10°C (72% RH)
AAT12.9°C
QNH1018 hPa
Raw Report
KD57 181415Z AUTO 10006KT 10SM 15/10 A3005 RMK AO2 PWINO=

Extra information for KD57:More info

Social comments